Time;durP1;ratioP1;P1;durP2;ratioP2;P2;SDS_P1;SDS_P2;PMS_P1;PMS_P2;Temp;Humidity;BMP_temperature;BMP_pressure;BME280_temperature;BME280_humidity;BME280_pressure;Samples;Min_cycle;Max_cycle;Signal;HPM_P1;HPM_P2
2023/07/28 00:00:30;;;;;;;;;;;;;;;17.02;100.00;100461.75;5073287;28;20275;-57
2023/07/28 00:02:55;;;;;;;;;;;;;;;17.03;100.00;100455.63;5071659;28;19995;-57
2023/07/28 00:05:20;;;;;;;;;;;;;;;17.07;100.00;100455.59;5071182;28;19916;-57
2023/07/28 00:07:46;;;;;;;;;;;;;;;17.03;100.00;100454.72;5071598;28;19912;-56
2023/07/28 00:10:11;;;;;;;;;;;;;;;17.04;100.00;100448.56;5072279;28;19912;-56
2023/07/28 00:12:36;;;;;;;;;;;;;;;17.04;100.00;100453.84;5065556;28;20049;-57
2023/07/28 00:15:01;;;;;;;;;;;;;;;17.06;100.00;100451.19;5072167;28;19947;-57
2023/07/28 00:17:27;;;;;;;;;;;;;;;17.06;100.00;100443.28;5072047;28;19923;-57
2023/07/28 00:19:52;;;;;;;;;;;;;;;17.06;100.00;100446.81;5072171;28;20003;-56
2023/07/28 00:22:17;;;;;;;;;;;;;;;17.05;100.00;100445.06;5068289;28;20401;-57
2023/07/28 00:24:42;;;;;;;;;;;;;;;17.03;100.00;100452.97;5071352;28;19922;-57
2023/07/28 00:27:07;;;;;;;;;;;;;;;17.06;100.00;100446.81;5071124;28;19969;-57
2023/07/28 00:29:33;;;;;;;;;;;;;;;17.03;100.00;100458.25;5065685;28;19985;-57
2023/07/28 00:31:58;;;;;;;;;;;;;;;17.05;100.00;100447.69;5070388;28;19912;-57
2023/07/28 00:34:23;;;;;;;;;;;;;;;17.06;100.00;100445.94;5070046;28;20042;-57
2023/07/28 00:36:48;;;;;;;;;;;;;;;17.10;100.00;100452.91;5069421;28;20374;-56
2023/07/28 00:39:14;;;;;;;;;;;;;;;17.04;100.00;100448.56;5071347;28;20215;-56
2023/07/28 00:41:39;;;;;;;;;;;;;;;17.02;100.00;100443.31;5067073;28;19978;-57
2023/07/28 00:44:04;;;;;;;;;;;;;;;17.03;100.00;100444.19;5069719;28;20264;-56
2023/07/28 00:46:30;;;;;;;;;;;;;;;17.03;100.00;100442.44;5069765;28;19912;-57
2023/07/28 00:48:55;;;;;;;;;;;;;;;17.02;100.00;100437.19;5071658;28;20069;-56
2023/07/28 00:51:21;;;;;;;;;;;;;;;17.03;100.00;100436.28;5066283;28;20403;-56
2023/07/28 00:53:46;;;;;;;;;;;;;;;17.02;100.00;100434.56;5069763;28;19908;-57
2023/07/28 00:56:12;;;;;;;;;;;;;;;17.02;100.00;100431.94;5064856;28;20342;-56
2023/07/28 00:58:37;;;;;;;;;;;;;;;17.00;100.00;100426.69;5072056;28;19920;-56
2023/07/28 01:01:02;;;;;;;;;;;;;;;17.00;100.00;100431.97;5070013;28;20381;-56
2023/07/28 01:03:29;;;;;;;;;;;;;;;17.01;100.00;100432.81;5069513;28;19920;-57
2023/07/28 01:06:18;;;;;;;;;;;;;;;17.03;100.00;100439.81;5071952;28;20390;-57
2023/07/28 01:08:56;;;;;;;;;;;;;;;17.01;100.00;100443.34;5058750;28;19916;-57
2023/07/28 01:11:21;;;;;;;;;;;;;;;17.05;100.00;100447.69;5068543;28;20320;-57
2023/07/28 01:13:47;;;;;;;;;;;;;;;17.03;100.00;100449.44;5069863;28;19961;-57
2023/07/28 01:16:12;;;;;;;;;;;;;;;17.02;100.00;100455.63;5070447;28;19916;-56
2023/07/28 01:18:40;;;;;;;;;;;;;;;17.03;100.00;100445.09;5070562;28;19939;-57
2023/07/28 01:21:08;;;;;;;;;;;;;;;17.04;100.00;100451.22;5070356;28;19922;-56
2023/07/28 01:23:48;;;;;;;;;;;;;;;17.06;100.00;100452.09;5068073;28;19920;-56
2023/07/28 01:26:15;;;;;;;;;;;;;;;17.03;100.00;100454.72;5069707;28;19927;-56
2023/07/28 01:28:41;;;;;;;;;;;;;;;17.02;100.00;100445.09;5069735;28;19922;-57
2023/07/28 01:31:07;;;;;;;;;;;;;;;17.06;100.00;100446.81;5067404;28;20408;-57
2023/07/28 01:33:32;;;;;;;;;;;;;;;17.06;100.00;100457.34;5067970;28;19916;-57
2023/07/28 01:36:00;;;;;;;;;;;;;;;17.06;100.00;100454.72;5068214;28;20003;-56
2023/07/28 01:38:25;;;;;;;;;;;;;;;17.04;100.00;100459.09;5066882;28;19918;-57
2023/07/28 01:40:50;;;;;;;;;;;;;;;17.03;100.00;100457.34;5068721;28;20007;-56
2023/07/28 01:43:15;;;;;;;;;;;;;;;17.01;100.00;100454.72;5068868;28;19915;-56
2023/07/28 01:45:41;;;;;;;;;;;;;;;17.06;100.00;100457.34;5065833;28;19916;-57
2023/07/28 01:48:08;;;;;;;;;;;;;;;17.04;100.00;100459.09;5068380;28;19944;-55
2023/07/28 01:50:33;;;;;;;;;;;;;;;17.04;100.00;100459.97;5067088;28;19970;-56
2023/07/28 01:52:58;;;;;;;;;;;;;;;17.07;100.00;100456.44;5064954;28;19916;-57
2023/07/28 01:55:24;;;;;;;;;;;;;;;17.04;100.00;100459.09;5067045;28;19919;-56
2023/07/28 01:57:50;;;;;;;;;;;;;;;17.04;100.00;100462.59;5066973;28;19908;-57
2023/07/28 02:00:16;;;;;;;;;;;;;;;17.06;100.00;100461.72;5070155;28;19991;-56
2023/07/28 02:02:41;;;;;;;;;;;;;;;17.08;100.00;100452.06;5068449;28;20647;-56
2023/07/28 02:05:06;;;;;;;;;;;;;;;17.06;100.00;100457.34;5067157;28;19916;-57
2023/07/28 02:07:31;;;;;;;;;;;;;;;17.04;100.00;100449.44;5069012;28;19969;-56
2023/07/28 02:09:57;;;;;;;;;;;;;;;17.06;100.00;100454.72;5069862;28;19912;-57
2023/07/28 02:12:22;;;;;;;;;;;;;;;17.05;100.00;100450.34;5066550;28;20547;-56
2023/07/28 02:14:47;;;;;;;;;;;;;;;17.02;100.00;100451.22;5067529;28;19912;-56
2023/07/28 02:17:12;;;;;;;;;;;;;;;17.06;100.00;100449.44;5066200;28;20496;-57
2023/07/28 02:19:37;;;;;;;;;;;;;;;17.03;100.00;100449.44;5068189;28;19951;-56
2023/07/28 02:22:03;;;;;;;;;;;;;;;17.02;100.00;100445.97;5068130;28;19912;-56
2023/07/28 02:24:28;;;;;;;;;;;;;;;17.03;100.00;100452.09;5066534;28;19920;-56
2023/07/28 02:26:54;;;;;;;;;;;;;;;17.17;100.00;100452.81;5066622;28;20385;-56
2023/07/28 02:29:19;;;;;;;;;;;;;;;17.08;100.00;100455.56;5064953;28;19970;-56
2023/07/28 02:31:45;;;;;;;;;;;;;;;17.04;100.00;100456.47;5066926;28;20498;-57
2023/07/28 02:34:10;;;;;;;;;;;;;;;17.03;100.00;100457.34;5068077;28;19919;-56
2023/07/28 02:36:35;;;;;;;;;;;;;;;17.03;100.00;100455.63;5068044;28;20297;-57
2023/07/28 02:39:00;;;;;;;;;;;;;;;17.04;100.00;100459.97;5068312;28;19913;-56
2023/07/28 02:41:25;;;;;;;;;;;;;;;17.04;100.00;100453.84;5066473;28;20488;-57
2023/07/28 02:43:51;;;;;;;;;;;;;;;17.03;100.00;100452.09;5068251;28;20297;-57
2023/07/28 02:46:16;;;;;;;;;;;;;;;17.04;100.00;100467.00;5067882;28;19912;-56
2023/07/28 02:48:41;;;;;;;;;;;;;;;17.08;100.00;100454.69;5063235;28;19961;-57
2023/07/28 02:51:06;;;;;;;;;;;;;;;17.06;100.00;100459.97;5066623;28;19912;-57
2023/07/28 02:53:31;;;;;;;;;;;;;;;17.05;100.00;100463.50;5067084;28;20366;-57
2023/07/28 02:55:57;;;;;;;;;;;;;;;17.05;100.00;100471.38;5068812;28;19961;-57
2023/07/28 02:58:22;;;;;;;;;;;;;;;17.04;100.00;100475.75;5064906;28;19916;-57
2023/07/28 03:00:47;;;;;;;;;;;;;;;17.05;100.00;100468.75;5059879;28;19913;-57
2023/07/28 03:03:12;;;;;;;;;;;;;;;17.09;100.00;100475.75;5066308;28;20388;-56
2023/07/28 03:05:39;;;;;;;;;;;;;;;17.06;100.00;100473.16;5068271;28;19927;-56
2023/07/28 03:08:04;;;;;;;;;;;;;;;17.06;100.00;100473.16;5067591;28;19995;-56
2023/07/28 03:10:29;;;;;;;;;;;;;;;17.09;100.00;100470.47;5067128;28;20326;-57
2023/07/28 03:12:55;;;;;;;;;;;;;;;17.10;100.00;100477.47;5069124;28;20057;-57
2023/07/28 03:15:21;;;;;;;;;;;;;;;17.10;100.00;100474.84;5065493;28;21177;-56
2023/07/28 03:17:47;;;;;;;;;;;;;;;17.13;100.00;100474.84;5071073;28;19921;-57
2023/07/28 03:20:12;;;;;;;;;;;;;;;17.10;100.00;100480.09;5071357;28;19923;-58
2023/07/28 03:22:37;;;;;;;;;;;;;;;17.08;100.00;100475.75;5071277;28;20333;-57
2023/07/28 03:25:03;;;;;;;;;;;;;;;17.10;100.00;100474.84;5088761;28;19917;-56
2023/07/28 03:27:28;;;;;;;;;;;;;;;17.12;100.00;100483.59;5064385;28;20177;-57
2023/07/28 03:29:53;;;;;;;;;;;;;;;17.09;100.00;100478.38;5068633;28;20286;-57
2023/07/28 03:32:18;;;;;;;;;;;;;;;17.11;100.00;100486.25;5073101;28;20306;-57
2023/07/28 03:34:43;;;;;;;;;;;;;;;17.10;100.00;100485.38;5071367;28;19995;-57
2023/07/28 03:37:09;;;;;;;;;;;;;;;17.11;100.00;100489.75;5071719;28;20377;-57
2023/07/28 03:39:34;;;;;;;;;;;;;;;17.15;100.00;100488.84;5069427;28;19923;-57
2023/07/28 03:41:59;;;;;;;;;;;;;;;17.11;100.00;100491.53;5071121;28;20599;-57
2023/07/28 03:44:24;;;;;;;;;;;;;;;17.13;100.00;100493.25;5072046;28;19917;-57
2023/07/28 03:46:50;;;;;;;;;;;;;;;17.10;100.00;100495.91;5065348;28;20372;-57
2023/07/28 03:49:15;;;;;;;;;;;;;;;17.11;100.00;100502.06;5071495;28;19948;-57
2023/07/28 03:51:40;;;;;;;;;;;;;;;17.09;100.00;100504.69;5060364;28;19919;-57
2023/07/28 03:54:05;;;;;;;;;;;;;;;17.11;100.00;100515.22;5069730;28;19916;-57
2023/07/28 03:56:31;;;;;;;;;;;;;;;17.11;100.00;100509.94;5069715;28;20399;-57
2023/07/28 03:58:56;;;;;;;;;;;;;;;17.11;100.00;100512.59;5071246;28;19924;-57
2023/07/28 04:01:22;;;;;;;;;;;;;;;17.13;100.00;100505.53;5071267;28;19912;-56
2023/07/28 04:03:47;;;;;;;;;;;;;;;17.12;100.00;100511.69;5062562;28;19917;-57
2023/07/28 04:06:12;;;;;;;;;;;;;;;17.13;100.00;100519.59;5069943;28;19912;-57
2023/07/28 04:08:38;;;;;;;;;;;;;;;17.12;100.00;100509.94;5070317;28;20343;-57
2023/07/28 04:11:04;;;;;;;;;;;;;;;17.13;100.00;100510.78;5060075;28;19995;-56
2023/07/28 04:13:29;;;;;;;;;;;;;;;17.14;100.00;100512.56;5068131;28;19927;-57
2023/07/28 04:15:54;;;;;;;;;;;;;;;17.15;100.00;100515.16;5070749;28;19908;-57
2023/07/28 04:18:20;;;;;;;;;;;;;;;17.15;100.00;100506.41;5069065;28;20061;-56
2023/07/28 04:20:46;;;;;;;;;;;;;;;17.14;100.00;100505.50;5071468;28;19911;-57
2023/07/28 04:23:11;;;;;;;;;;;;;;;17.14;100.00;100499.38;5073162;28;19993;-57
2023/07/28 04:25:36;;;;;;;;;;;;;;;17.14;100.00;100505.50;5067987;28;19928;-56
2023/07/28 04:28:02;;;;;;;;;;;;;;;17.14;100.00;100502.88;5064447;28;20352;-57
2023/07/28 04:30:27;;;;;;;;;;;;;;;17.14;100.00;100509.91;5065759;28;19913;-57
2023/07/28 04:32:52;;;;;;;;;;;;;;;17.13;100.00;100511.69;5059827;28;19912;-57
2023/07/28 04:35:17;;;;;;;;;;;;;;;17.14;100.00;100508.16;5070616;28;19912;-57
2023/07/28 04:37:42;;;;;;;;;;;;;;;17.12;100.00;100507.31;5068532;28;19908;-57
2023/07/28 04:40:08;;;;;;;;;;;;;;;17.11;100.00;100517.84;5063797;28;19920;-56
2023/07/28 04:42:34;;;;;;;;;;;;;;;17.12;100.00;100515.19;5068285;28;20003;-57
2023/07/28 04:44:59;;;;;;;;;;;;;;;17.12;100.00;100512.56;5068283;28;20011;-56
2023/07/28 04:47:25;;;;;;;;;;;;;;;17.14;100.00;100507.28;5066392;28;19916;-56
2023/07/28 04:49:50;;;;;;;;;;;;;;;17.10;100.00;100495.91;5063579;28;20306;-56
2023/07/28 04:52:15;;;;;;;;;;;;;;;17.11;100.00;100505.53;5061871;28;19920;-57
2023/07/28 04:54:40;;;;;;;;;;;;;;;17.13;100.00;100501.16;5067244;28;19912;-56
2023/07/28 04:57:06;;;;;;;;;;;;;;;17.13;100.00;100506.44;5072118;28;20412;-57
2023/07/28 04:59:31;;;;;;;;;;;;;;;17.14;100.00;100508.16;5069308;28;20003;-57
2023/07/28 05:01:56;;;;;;;;;;;;;;;17.16;100.00;100505.50;5071324;28;19923;-56
2023/07/28 05:04:22;;;;;;;;;;;;;;;17.17;100.00;100502.84;5071865;28;19920;-57
2023/07/28 05:09:12;;;;;;;;;;;;;;;17.20;100.00;100505.44;5677502;22;20845;-55
2023/07/28 05:11:37;;;;;;;;;;;;;;;17.21;100.00;100499.31;5119933;22;19920;-56
2023/07/28 05:14:02;;;;;;;;;;;;;;;17.23;100.00;100511.59;5067104;28;20004;-56
2023/07/28 05:16:28;;;;;;;;;;;;;;;17.26;100.00;100522.09;5061381;28;19901;-56
2023/07/28 05:18:53;;;;;;;;;;;;;;;17.27;100.00;100531.75;5062904;28;19924;-56
2023/07/28 05:21:18;;;;;;;;;;;;;;;17.27;100.00;100529.97;5063914;28;19901;-57
2023/07/28 05:23:43;;;;;;;;;;;;;;;17.29;100.00;100528.22;5055522;28;19917;-57
2023/07/28 05:26:08;;;;;;;;;;;;;;;17.30;100.00;100529.94;5064188;28;19912;-57
2023/07/28 05:28:35;;;;;;;;;;;;;;;17.29;100.00;100538.75;5052417;28;20245;-57
2023/07/28 05:31:07;;;;;;;;;;;;;;;17.32;100.00;100543.09;5059911;28;19995;-57
2023/07/28 05:33:32;;;;;;;;;;;;;;;17.33;100.00;100544.84;5066889;28;20328;-57
2023/07/28 05:36:01;;;;;;;;;;;;;;;17.36;100.00;100542.19;5057758;28;19912;-57
2023/07/28 05:38:27;;;;;;;;;;;;;;;17.36;100.00;100550.09;5061812;28;19954;-57
2023/07/28 05:41:00;;;;;;;;;;;;;;;17.38;100.00;100551.81;5066194;28;19964;-57
2023/07/28 05:43:25;;;;;;;;;;;;;;;17.40;100.00;100549.19;5061997;28;19916;-57
2023/07/28 05:45:51;;;;;;;;;;;;;;;17.43;100.00;100557.03;5055695;28;19947;-57
2023/07/28 05:48:16;;;;;;;;;;;;;;;17.44;100.00;100550.00;5055764;28;19912;-57
2023/07/28 05:50:41;;;;;;;;;;;;;;;17.45;100.00;100557.94;5062530;28;19992;-57
2023/07/28 05:53:07;;;;;;;;;;;;;;;17.46;100.00;100557.00;5062634;28;19934;-57
2023/07/28 05:55:32;;;;;;;;;;;;;;;17.49;100.00;100561.38;5067551;28;19913;-57
2023/07/28 05:57:57;;;;;;;;;;;;;;;17.51;100.00;100565.75;5062140;28;20451;-57
2023/07/28 06:00:22;;;;;;;;;;;;;;;17.50;100.00;100564.00;5065229;28;19931;-57
2023/07/28 06:02:48;;;;;;;;;;;;;;;17.51;100.00;100563.13;5065563;28;19918;-57
2023/07/28 06:05:13;;;;;;;;;;;;;;;17.54;100.00;100565.72;5064542;28;19962;-57
2023/07/28 06:07:38;;;;;;;;;;;;;;;17.60;100.00;100563.91;5063656;28;20543;-57
2023/07/28 06:10:04;;;;;;;;;;;;;;;17.59;100.00;100567.44;5066464;28;20041;-57
2023/07/28 06:12:29;;;;;;;;;;;;;;;17.63;100.00;100561.25;5065222;28;19919;-57
2023/07/28 06:14:54;;;;;;;;;;;;;;;17.66;100.00;100561.22;5063925;28;19916;-57
2023/07/28 06:17:20;;;;;;;;;;;;;;;17.67;100.00;100566.47;5063676;28;19917;-56
2023/07/28 06:19:45;;;;;;;;;;;;;;;17.68;100.00;100568.25;5064499;28;19942;-56
2023/07/28 06:22:10;;;;;;;;;;;;;;;17.67;100.00;100563.84;5066827;28;19994;-57
2023/07/28 06:24:35;;;;;;;;;;;;;;;17.70;100.00;100565.59;5066462;28;19920;-57
2023/07/28 06:27:06;;;;;;;;;;;;;;;17.70;100.00;100558.53;5066463;28;19919;-57
2023/07/28 06:29:33;;;;;;;;;;;;;;;17.72;100.00;100563.78;5061500;28;19921;-57
2023/07/28 06:31:58;;;;;;;;;;;;;;;17.74;100.00;100577.81;5062882;28;19908;-57
2023/07/28 06:34:23;;;;;;;;;;;;;;;17.76;100.00;100576.06;5063226;28;19912;-57
2023/07/28 06:36:48;;;;;;;;;;;;;;;17.79;100.00;100580.44;5065624;28;20006;-56
2023/07/28 06:39:14;;;;;;;;;;;;;;;17.81;100.00;100584.75;5063057;28;19908;-57
2023/07/28 06:41:39;;;;;;;;;;;;;;;17.84;100.00;100586.50;5061295;28;20536;-57
2023/07/28 06:44:04;;;;;;;;;;;;;;;17.86;100.00;100585.59;5064680;28;19962;-57
2023/07/28 06:46:30;;;;;;;;;;;;;;;17.90;100.00;100587.34;5063581;28;20640;-57
2023/07/28 06:48:55;;;;;;;;;;;;;;;17.90;100.00;100590.00;5063770;28;19913;-57
2023/07/28 06:51:20;;;;;;;;;;;;;;;17.91;100.00;100585.59;5061684;28;19913;-56
2023/07/28 06:53:46;;;;;;;;;;;;;;;17.95;100.00;100589.06;5063447;28;20533;-56
2023/07/28 06:56:11;;;;;;;;;;;;;;;17.99;100.00;100598.69;5061481;28;19951;-56
2023/07/28 06:58:36;;;;;;;;;;;;;;;17.98;100.00;100595.16;5057787;28;19956;-57
2023/07/28 07:01:01;;;;;;;;;;;;;;;18.00;100.00;100600.41;5067269;28;20332;-56
2023/07/28 07:03:26;;;;;;;;;;;;;;;17.99;100.00;100601.34;5067719;28;19908;-57
2023/07/28 07:05:52;;;;;;;;;;;;;;;18.00;100.00;100603.94;5066759;28;19912;-57
2023/07/28 07:08:17;;;;;;;;;;;;;;;18.00;100.00;100606.59;5069118;28;19947;-57
2023/07/28 07:10:50;;;;;;;;;;;;;;;18.10;100.00;100607.34;5064489;28;19935;-56
2023/07/28 07:13:15;;;;;;;;;;;;;;;18.05;100.00;100611.81;5048506;28;19926;-56
2023/07/28 07:15:42;;;;;;;;;;;;;;;18.02;100.00;100610.06;5064325;28;19988;-57
2023/07/28 07:18:07;;;;;;;;;;;;;;;18.02;100.00;100611.84;5067942;28;20418;-57
2023/07/28 07:20:36;;;;;;;;;;;;;;;18.02;100.00;100619.75;5070786;28;19953;-57
2023/07/28 07:23:01;;;;;;;;;;;;;;;18.04;100.00;100621.47;5068150;28;19961;-56
2023/07/28 07:25:26;;;;;;;;;;;;;;;18.06;100.00;100622.34;5063868;28;20412;-57
2023/07/28 07:27:51;;;;;;;;;;;;;;;18.08;100.00;100619.69;5060864;28;19961;-56
2023/07/28 07:30:17;;;;;;;;;;;;;;;18.08;100.00;100627.59;5067840;28;19934;-57
2023/07/28 07:32:42;;;;;;;;;;;;;;;18.12;100.00;100626.66;5066191;28;19913;-57
2023/07/28 07:35:08;;;;;;;;;;;;;;;18.16;100.00;100622.22;5070146;28;19908;-57
2023/07/28 07:37:33;;;;;;;;;;;;;;;18.13;100.00;100635.44;5066076;28;20449;-56
2023/07/28 07:40:00;;;;;;;;;;;;;;;18.14;100.00;100626.66;5067773;28;19959;-57
2023/07/28 07:42:26;;;;;;;;;;;;;;;18.23;100.00;100630.06;5067464;28;19973;-57
2023/07/28 07:44:51;;;;;;;;;;;;;;;18.14;100.00;100637.19;5052130;28;19998;-56
2023/07/28 07:47:16;;;;;;;;;;;;;;;18.20;100.00;100630.06;5065728;28;19920;-57
2023/07/28 07:49:42;;;;;;;;;;;;;;;18.17;100.00;100640.66;5066769;28;19915;-57
2023/07/28 07:52:09;;;;;;;;;;;;;;;18.18;100.00;100645.06;5063765;28;19927;-57
2023/07/28 07:54:34;;;;;;;;;;;;;;;18.19;100.00;100644.16;5063553;28;20060;-57
2023/07/28 07:56:59;;;;;;;;;;;;;;;18.25;100.00;100641.44;5064148;28;19950;-57
2023/07/28 07:59:27;;;;;;;;;;;;;;;18.21;100.00;100641.50;5067922;28;19935;-57
2023/07/28 08:01:53;;;;;;;;;;;;;;;18.22;100.00;100644.13;5062338;28;19974;-57
2023/07/28 08:04:18;;;;;;;;;;;;;;;18.25;100.00;100645.88;5070219;28;19916;-57
2023/07/28 08:06:43;;;;;;;;;;;;;;;18.30;100.00;100648.44;5072012;28;19944;-57
2023/07/28 08:09:09;;;;;;;;;;;;;;;18.36;100.00;100643.09;5069463;28;19966;-57
2023/07/28 08:11:35;;;;;;;;;;;;;;;18.27;100.00;100648.47;5070815;28;20494;-57
2023/07/28 08:14:00;;;;;;;;;;;;;;;18.29;100.00;100647.56;5069919;28;19916;-57
2023/07/28 08:16:25;;;;;;;;;;;;;;;18.32;100.00;100650.19;5065978;28;19916;-57
2023/07/28 08:18:50;;;;;;;;;;;;;;;18.31;100.00;100650.19;5068276;28;20007;-56
2023/07/28 08:21:16;;;;;;;;;;;;;;;18.32;100.00;100652.81;5067935;28;19916;-57
2023/07/28 08:23:41;;;;;;;;;;;;;;;18.34;100.00;100651.03;5060500;28;19924;-57
2023/07/28 08:26:06;;;;;;;;;;;;;;;18.38;100.00;100657.16;5069990;28;19920;-56
2023/07/28 08:28:32;;;;;;;;;;;;;;;18.37;100.00;100658.03;5061079;28;19916;-56
2023/07/28 08:30:58;;;;;;;;;;;;;;;18.43;100.00;100663.22;5070790;28;19909;-56
2023/07/28 08:33:24;;;;;;;;;;;;;;;18.45;100.00;100660.56;5070914;28;19912;-57
2023/07/28 08:35:49;;;;;;;;;;;;;;;18.40;100.00;100656.22;5072962;28;19919;-56
2023/07/28 08:38:14;;;;;;;;;;;;;;;18.41;100.00;100659.75;5070740;28;19908;-56
2023/07/28 08:40:39;;;;;;;;;;;;;;;18.48;100.00;100669.34;5063930;28;19912;-56
2023/07/28 08:43:05;;;;;;;;;;;;;;;18.49;100.00;100665.78;5070271;28;19916;-56
2023/07/28 08:45:30;;;;;;;;;;;;;;;18.50;100.00;100670.19;5070769;28;19917;-56
2023/07/28 08:47:56;;;;;;;;;;;;;;;18.54;100.00;100669.25;5073166;28;19995;-56
2023/07/28 08:50:21;;;;;;;;;;;;;;;18.66;100.00;100668.22;5062240;28;20394;-56
2023/07/28 08:52:46;;;;;;;;;;;;;;;18.70;100.00;100667.31;5069906;28;19916;-57
2023/07/28 08:55:13;;;;;;;;;;;;;;;18.79;100.00;100665.44;5072112;28;19915;-58
2023/07/28 08:57:38;;;;;;;;;;;;;;;18.85;100.00;100662.72;5067855;28;19912;-58
2023/07/28 09:00:07;;;;;;;;;;;;;;;18.92;100.00;100672.31;5069719;28;19912;-57
2023/07/28 09:02:33;;;;;;;;;;;;;;;18.95;100.00;100672.28;5071320;28;20333;-57
2023/07/28 09:05:02;;;;;;;;;;;;;;;19.00;100.00;100669.56;5066290;28;20397;-57
2023/07/28 09:07:33;;;;;;;;;;;;;;;19.07;100.00;100668.59;5066306;28;20023;-57
2023/07/28 09:10:00;;;;;;;;;;;;;;;19.15;100.00;100676.38;5060603;28;19922;-57
2023/07/28 09:12:25;;;;;;;;;;;;;;;19.27;100.00;100674.44;5069892;28;20108;-57
2023/07/28 09:14:55;;;;;;;;;;;;;;;19.22;100.00;100681.59;5070420;28;20381;-57
2023/07/28 09:17:21;;;;;;;;;;;;;;;19.27;100.00;100674.44;5065340;28;20005;-57
2023/07/28 09:19:50;;;;;;;;;;;;;;;19.34;100.00;100669.09;5065774;28;20430;-57
2023/07/28 09:22:15;;;;;;;;;;;;;;;19.40;100.00;100674.28;5071429;28;20335;-58
2023/07/28 09:24:41;;;;;;;;;;;;;;;19.49;100.00;100674.09;5067563;28;19974;-58
2023/07/28 09:27:06;;;;;;;;;;;;;;;19.59;100.00;100681.00;5071389;28;19919;-57
2023/07/28 09:29:31;;;;;;;;;;;;;;;19.58;100.00;100681.00;5063497;28;19908;-57
2023/07/28 09:32:05;;;;;;;;;;;;;;;19.60;100.00;100682.75;5072289;28;19913;-57
2023/07/28 09:34:32;;;;;;;;;;;;;;;19.64;100.00;100680.94;5070859;28;19915;-57
2023/07/28 09:36:57;;;;;;;;;;;;;;;19.78;100.00;100680.69;5062334;28;19912;-57
2023/07/28 09:39:23;;;;;;;;;;;;;;;19.87;100.00;100683.22;5072130;28;20396;-57
2023/07/28 09:41:48;;;;;;;;;;;;;;;20.05;100.00;100681.16;5071123;28;19944;-58
2023/07/28 09:44:15;;;;;;;;;;;;;;;20.18;100.00;100677.38;5066876;28;19917;-58
2023/07/28 09:46:56;;;;;;;;;;;;;;;20.32;100.00;100677.13;5071249;28;19916;-58
2023/07/28 09:49:24;;;;;;;;;;;;;;;20.40;100.00;100683.09;5052608;28;20030;-58
2023/07/28 09:51:53;;;;;;;;;;;;;;;20.54;100.00;100681.94;5071127;28;19916;-58
2023/07/28 09:54:29;;;;;;;;;;;;;;;20.61;100.00;100689.75;5061798;28;19904;-58
2023/07/28 09:56:56;;;;;;;;;;;;;;;20.69;100.00;100683.47;5066737;28;20322;-58
2023/07/28 09:59:26;;;;;;;;;;;;;;;20.79;100.00;100687.66;5068063;28;19931;-58
2023/07/28 10:01:51;;;;;;;;;;;;;;;20.92;100.00;100688.25;5067610;28;19913;-58
2023/07/28 10:04:16;;;;;;;;;;;;;;;20.99;100.00;100676.63;5067441;28;19928;-58
2023/07/28 10:06:42;;;;;;;;;;;;;;;21.03;100.00;100680.97;5069210;28;20160;-58
2023/07/28 10:09:07;;;;;;;;;;;;;;;21.07;100.00;100681.75;5070087;28;20007;-58
2023/07/28 10:11:33;;;;;;;;;;;;;;;21.08;100.00;100687.00;5062226;28;19916;-58
2023/07/28 10:13:58;;;;;;;;;;;;;;;21.07;100.00;100681.75;5067926;28;19920;-58
2023/07/28 10:16:30;;;;;;;;;;;;;;;21.07;100.00;100687.03;5063344;28;19912;-58
2023/07/28 10:18:56;;;;;;;;;;;;;;;21.07;100.00;100687.91;5068156;28;19908;-58
2023/07/28 10:21:26;;;;;;;;;;;;;;;21.06;100.00;100693.25;5064101;28;20014;-58
2023/07/28 10:23:56;;;;;;;;;;;;;;;21.04;100.00;100697.72;5064034;28;20018;-59
2023/07/28 10:26:31;;;;;;;;;;;;;;;21.03;100.00;100696.84;5064245;28;19912;-58
2023/07/28 10:29:07;;;;;;;;;;;;;;;21.04;100.00;100690.63;5063770;28;19927;-58
2023/07/28 10:31:33;;;;;;;;;;;;;;;21.04;100.00;100697.72;5065649;28;19914;-59
2023/07/28 10:33:58;;;;;;;;;;;;;;;21.06;100.00;100698.53;5061488;28;20011;-58
2023/07/28 10:36:25;;;;;;;;;;;;;;;21.15;100.00;100695.69;5060989;28;19915;-58
2023/07/28 10:39:00;;;;;;;;;;;;;;;21.27;100.00;100698.06;5067834;28;19926;-59
2023/07/28 10:41:25;;;;;;;;;;;;;;;21.30;100.00;100695.31;5064937;28;19948;-58
2023/07/28 10:43:51;;;;;;;;;;;;;;;21.41;100.00;100691.56;5068066;28;19956;-59
2023/07/28 10:46:17;;;;;;;;;;;;;;;21.53;99.68;100693.94;5069303;28;20003;-59
2023/07/28 10:48:43;;;;;;;;;;;;;;;21.62;100.00;100690.19;5070198;28;19923;-59
2023/07/28 10:51:09;;;;;;;;;;;;;;;21.70;98.27;100693.53;5067187;28;19916;-59
2023/07/28 10:53:34;;;;;;;;;;;;;;;21.80;100.00;100689.75;5062864;28;19930;-59
2023/07/28 10:56:03;;;;;;;;;;;;;;;21.88;98.61;100686.88;5066076;28;20015;-59
2023/07/28 10:58:29;;;;;;;;;;;;;;;21.94;99.02;100688.50;5067410;28;20059;-59
2023/07/28 11:00:54;;;;;;;;;;;;;;;21.98;99.19;100680.41;5069079;28;20052;-59
2023/07/28 11:03:20;;;;;;;;;;;;;;;22.09;98.87;100682.81;5069429;28;19919;-59
2023/07/28 11:05:45;;;;;;;;;;;;;;;22.32;93.92;100674.25;5066954;28;19916;-59
2023/07/28 11:08:10;;;;;;;;;;;;;;;22.43;97.92;100686.34;5070558;28;19960;-59
2023/07/28 11:10:36;;;;;;;;;;;;;;;22.63;94.71;100681.31;5067726;28;19920;-59
2023/07/28 11:13:02;;;;;;;;;;;;;;;22.80;95.41;100685.28;5058943;28;19927;-59
2023/07/28 11:15:27;;;;;;;;;;;;;;;22.99;95.11;100683.78;5071243;28;19955;-60
2023/07/28 11:17:53;;;;;;;;;;;;;;;23.20;91.47;100684.97;5048681;28;19955;-60
2023/07/28 11:20:19;;;;;;;;;;;;;;;23.45;91.64;100681.50;5076074;28;20196;-59
2023/07/28 11:22:45;;;;;;;;;;;;;;;23.70;92.28;100684.22;5070995;28;20282;-60
2023/07/28 11:25:11;;;;;;;;;;;;;;;23.82;91.14;100679.41;5073518;28;20177;-60
2023/07/28 11:27:37;;;;;;;;;;;;;;;24.03;89.41;100675.16;5067451;28;19998;-60
2023/07/28 11:30:06;;;;;;;;;;;;;;;24.21;87.05;100676.28;5069477;28;19921;-60
2023/07/28 11:32:31;;;;;;;;;;;;;;;24.30;83.20;100674.19;5063671;28;19920;-60
2023/07/28 11:35:06;;;;;;;;;;;;;;;24.43;82.16;100687.91;5061439;28;19954;-60
2023/07/28 11:37:35;;;;;;;;;;;;;;;24.40;83.70;100677.34;5064439;28;19955;-60
2023/07/28 11:40:06;;;;;;;;;;;;;;;24.46;83.83;100679.81;5065795;28;19912;-60
2023/07/28 11:42:33;;;;;;;;;;;;;;;24.47;79.67;100681.53;5065414;28;20417;-60
2023/07/28 11:44:59;;;;;;;;;;;;;;;24.45;78.07;100683.41;5065803;28;20383;-61
2023/07/28 11:47:24;;;;;;;;;;;;;;;24.32;77.28;100690.09;5066728;28;19908;-61
2023/07/28 11:49:50;;;;;;;;;;;;;;;24.21;75.21;100687.81;5067291;28;19959;-60
2023/07/28 11:52:16;;;;;;;;;;;;;;;23.91;79.81;100679.09;5065984;28;19909;-60
2023/07/28 11:54:41;;;;;;;;;;;;;;;23.86;78.20;100679.28;5067575;28;19920;-60
2023/07/28 11:57:08;;;;;;;;;;;;;;;23.79;81.28;100680.38;5065533;28;20315;-60
2023/07/28 11:59:34;;;;;;;;;;;;;;;23.76;83.21;100683.16;5068177;28;19919;-60
2023/07/28 12:02:07;;;;;;;;;;;;;;;23.84;83.93;100682.88;5065732;28;19909;-60
2023/07/28 12:04:38;;;;;;;;;;;;;;;24.03;81.82;100683.13;5075906;28;20337;-60
2023/07/28 12:07:08;;;;;;;;;;;;;;;24.01;81.95;100685.00;5062456;28;19913;-60
2023/07/28 12:09:51;;;;;;;;;;;;;;;23.96;83.71;100688.69;5072769;28;19915;-60
2023/07/28 12:12:17;;;;;;;;;;;;;;;23.83;82.20;100689.13;5075230;28;19912;-60
2023/07/28 12:14:43;;;;;;;;;;;;;;;23.69;85.14;100685.13;5080135;28;19908;-59
2023/07/28 12:17:15;;;;;;;;;;;;;;;23.62;85.32;100686.25;5071111;28;19912;-59
2023/07/28 12:19:59;;;;;;;;;;;;;;;23.54;84.81;100685.66;5074407;28;19947;-59
2023/07/28 12:22:25;;;;;;;;;;;;;;;23.50;82.80;100689.34;5077677;28;19920;-59
2023/07/28 12:24:50;;;;;;;;;;;;;;;23.29;83.18;100688.22;5062836;28;19963;-59